Jericho Mills, Pennsylvania
Current Conditions -  °F | °C
As of 5:53 AM on Friday 28 Nov 2014 (Local Time) from KSEG Reporting Station
Scattered Clouds Scattered Clouds  
Wind Chill: 25°   Ceiling: Unl
Heat Index: 31°   Visibility: 10mi
Dew Point: 20°   Wind: 6mph
Humidity: 64%   Direction: 300°WNW
Pressure: 30.18"   Gusts: NA
Location:  40.5853°N, 77.3611°W
Report Text: KSEG 281053Z AUTO 30005KT 10SM SCT043 M01/M07 A3018 RMK AO2 SLP226 T10061067
Loading
Personal Weather Stations






























Interactive Weather Map New forecast layout! Learn more

10-Day Weather Forecast

Advertisements
Track Severe Weather on mobile